Time;durP1;ratioP1;P1;durP2;ratioP2;P2;SDS_P1;SDS_P2;PMS_P1;PMS_P2;Temp;Humidity;BMP_temperature;BMP_pressure;BME280_temperature;BME280_humidity;BME280_pressure;Samples;Min_cycle;Max_cycle;Signal;HPM_P1;HPM_P2
2023/05/15 00:00:05;;;;;;;7.32;2.92;;;;;;;17.52;36.28;100050.00;5066779;28;20240;-48
2023/05/15 00:02:33;;;;;;;2.85;2.40;;;;;;;17.50;36.74;100051.84;5068334;28;20228;-44
2023/05/15 00:05:01;;;;;;;5.22;2.92;;;;;;;17.51;36.76;100050.91;5067116;28;20246;-46
2023/05/15 00:07:29;;;;;;;3.90;2.33;;;;;;;17.50;36.68;100042.25;5066630;28;20944;-53
2023/05/15 00:09:57;;;;;;;4.25;2.95;;;;;;;17.49;36.63;100042.31;5065189;28;20229;-46
2023/05/15 00:12:25;;;;;;;5.65;3.20;;;;;;;17.48;36.85;100045.84;5069721;28;20646;-49
2023/05/15 00:14:54;;;;;;;6.10;2.35;;;;;;;17.44;36.80;100036.44;5070156;28;20644;-59
2023/05/15 00:17:22;;;;;;;4.82;2.72;;;;;;;17.39;36.95;100034.03;5067770;28;20210;-56
2023/05/15 00:19:50;;;;;;;2.70;2.28;;;;;;;17.38;36.73;100043.59;5060868;28;20241;-59
2023/05/15 00:22:17;;;;;;;3.72;2.65;;;;;;;17.35;36.87;100033.31;5069863;28;20201;-60
2023/05/15 00:24:45;;;;;;;5.70;3.33;;;;;;;17.35;36.93;100028.09;5067854;28;20265;-58
2023/05/15 00:27:13;;;;;;;8.57;3.03;;;;;;;17.36;36.78;100019.38;5066789;28;20197;-63
2023/05/15 00:29:41;;;;;;;4.20;2.80;;;;;;;17.35;36.89;100019.44;5066687;28;20652;-58
2023/05/15 00:32:10;;;;;;;4.68;2.45;;;;;;;17.34;36.89;100013.38;5070604;28;20256;-58
2023/05/15 00:34:38;;;;;;;2.85;2.42;;;;;;;17.35;36.49;100012.47;5067055;28;20278;-60
2023/05/15 00:37:07;;;;;;;3.45;2.15;;;;;;;17.34;36.76;100004.69;5066398;28;20217;-58
2023/05/15 00:39:35;;;;;;;3.65;2.80;;;;;;;17.35;36.83;100002.06;5064239;28;20259;-60
2023/05/15 00:42:03;;;;;;;2.90;2.35;;;;;;;17.34;36.75;99997.75;5065073;28;20201;-59
2023/05/15 00:44:31;;;;;;;3.05;2.03;;;;;;;17.32;36.80;100002.16;5069040;28;20667;-58
2023/05/15 00:47:02;;;;;;;2.83;2.40;;;;;;;17.31;36.87;99997.03;5064592;28;20256;-58
2023/05/15 00:49:34;;;;;;;8.38;2.70;;;;;;;17.28;37.00;99989.34;5064335;28;20263;-58
2023/05/15 00:52:02;;;;;;;4.47;3.00;;;;;;;17.29;36.61;99988.41;5065488;28;20201;-58
2023/05/15 00:54:30;;;;;;;4.20;2.40;;;;;;;17.28;36.98;99979.75;5062450;28;20224;-60
2023/05/15 00:56:59;;;;;;;3.78;2.50;;;;;;;17.26;36.85;99981.56;5059759;28;20221;-57
2023/05/15 00:59:28;;;;;;;3.22;2.35;;;;;;;17.26;36.79;99997.19;5059607;28;20204;-61
2023/05/15 01:01:56;;;;;;;5.25;2.45;;;;;;;17.24;37.03;100014.66;5067389;28;20248;-58
2023/05/15 01:04:24;;;;;;;2.50;2.30;;;;;;;17.26;36.71;100014.56;5065691;28;20716;-57
2023/05/15 01:06:53;;;;;;;3.80;2.30;;;;;;;17.27;36.98;100000.63;5067378;28;20258;-57
2023/05/15 01:09:24;;;;;;;4.65;2.40;;;;;;;17.28;36.73;99995.38;5066658;28;20740;-57
2023/05/15 01:11:55;;;;;;;3.05;2.40;;;;;;;17.30;37.03;99998.75;5069072;28;20197;-62
2023/05/15 01:14:22;;;;;;;3.33;2.17;;;;;;;17.29;37.18;99989.25;5068941;28;20205;-63
2023/05/15 01:16:50;;;;;;;2.47;2.28;;;;;;;17.28;36.94;99990.19;5069769;28;20244;-58
2023/05/15 01:19:18;;;;;;;3.10;2.50;;;;;;;17.21;37.13;99980.91;5065012;28;20296;-58
2023/05/15 01:22:24;;;;;;;3.58;2.50;;;;;;;17.19;37.28;99984.47;5055287;28;20579;-57
2023/05/15 01:25:28;;;;;;;3.78;2.65;;;;;;;17.16;37.64;99982.88;5066099;28;20272;-58
2023/05/15 01:28:02;;;;;;;8.77;2.55;;;;;;;17.12;37.66;99963.03;5065990;28;20236;-57
2023/05/15 01:30:34;;;;;;;3.33;2.95;;;;;;;17.12;37.57;99958.72;5068472;28;20208;-56
2023/05/15 01:33:06;;;;;;;3.08;2.25;;;;;;;17.12;37.54;99952.63;5066449;28;20225;-59
2023/05/15 01:35:38;;;;;;;2.97;2.75;;;;;;;17.08;37.72;99945.84;5064756;28;20201;-58
2023/05/15 01:38:14;;;;;;;3.75;2.17;;;;;;;17.01;38.18;99944.41;5069377;28;20225;-59
2023/05/15 01:40:44;;;;;;;3.15;2.75;;;;;;;16.97;38.18;99948.88;5068647;28;20200;-57
2023/05/15 01:43:21;;;;;;;5.45;2.15;;;;;;;16.92;37.87;99955.19;5071278;28;20201;-70
2023/05/15 01:45:49;;;;;;;5.45;2.72;;;;;;;16.89;38.35;99951.78;5068107;28;20215;-58
2023/05/15 01:48:19;;;;;;;3.03;2.40;;;;;;;16.89;38.02;99943.97;5068311;28;20194;-58
2023/05/15 01:50:51;;;;;;;5.18;2.70;;;;;;;16.87;38.21;99938.00;5069722;28;20205;-57
2023/05/15 01:53:20;;;;;;;7.45;2.40;;;;;;;16.86;38.51;99936.31;5071343;28;20236;-58
2023/05/15 01:55:50;;;;;;;3.42;2.63;;;;;;;16.85;38.53;99934.59;5071561;28;20202;-58
2023/05/15 01:58:19;;;;;;;4.18;2.38;;;;;;;16.84;38.40;99932.91;5069492;28;20279;-58
2023/05/15 02:00:48;;;;;;;2.47;2.15;;;;;;;16.81;38.34;99922.63;5069260;28;20626;-58
2023/05/15 02:03:17;;;;;;;3.47;2.17;;;;;;;16.77;38.47;99918.44;5072701;28;20293;-56
2023/05/15 02:05:46;;;;;;;3.35;2.20;;;;;;;16.75;38.55;99915.03;5071661;28;20197;-58
2023/05/15 02:08:15;;;;;;;4.72;2.83;;;;;;;16.75;38.75;99928.03;5071256;28;20355;-58
2023/05/15 02:10:43;;;;;;;2.90;2.60;;;;;;;16.75;38.53;99930.66;5065558;28;20205;-58
2023/05/15 02:13:13;;;;;;;3.80;2.50;;;;;;;16.75;38.68;99935.00;5072441;28;20244;-58
2023/05/15 02:15:42;;;;;;;3.35;2.05;;;;;;;16.74;38.87;99941.97;5071845;28;20258;-64
2023/05/15 02:18:11;;;;;;;8.00;2.70;;;;;;;16.74;38.97;99920.31;5065831;28;20594;-58
2023/05/15 02:20:38;;;;;;;3.25;2.33;;;;;;;16.76;38.63;99915.91;5065143;28;20703;-61
2023/05/15 02:23:06;;;;;;;4.28;2.25;;;;;;;16.77;38.68;99915.84;5065505;28;20233;-57
2023/05/15 02:25:43;;;;;;;3.72;2.40;;;;;;;16.76;38.84;99914.16;5069727;28;20280;-58
2023/05/15 02:28:21;;;;;;;3.17;2.10;;;;;;;16.75;38.85;99907.22;5071737;28;20254;-59
2023/05/15 02:30:55;;;;;;;3.92;2.33;;;;;;;16.74;38.72;99908.16;5071998;28;20262;-58
2023/05/15 02:33:30;;;;;;;3.15;2.30;;;;;;;16.74;38.89;99904.72;5068193;28;20236;-58
2023/05/15 02:36:02;;;;;;;4.13;2.50;;;;;;;16.75;38.94;99894.22;5069523;28;20610;-60
2023/05/15 02:38:33;;;;;;;3.22;2.60;;;;;;;16.74;38.94;99900.34;5071545;28;20545;-59
2023/05/15 02:41:04;;;;;;;4.25;2.40;;;;;;;16.73;38.84;99898.63;5071276;28;20610;-58
2023/05/15 02:43:35;;;;;;;2.53;2.08;;;;;;;16.70;39.18;99877.94;5069565;28;20205;-58
2023/05/15 02:46:06;;;;;;;3.63;2.28;;;;;;;16.64;39.40;99867.75;5069590;28;20645;-57
2023/05/15 02:48:35;;;;;;;3.55;2.35;;;;;;;16.63;39.43;99872.09;5068848;28;20563;-61
2023/05/15 02:51:03;;;;;;;2.88;2.63;;;;;;;16.58;39.09;99865.41;5059830;28;20209;-63
2023/05/15 02:53:32;;;;;;;3.45;2.53;;;;;;;16.53;39.40;99857.78;5070318;28;20610;-57
2023/05/15 02:56:01;;;;;;;6.53;2.33;;;;;;;16.49;39.95;99857.94;5063809;28;20202;-60
2023/05/15 02:58:29;;;;;;;2.60;2.40;;;;;;;16.45;39.85;99851.19;5071129;28;20257;-58
2023/05/15 03:00:57;;;;;;;2.80;2.50;;;;;;;16.40;40.19;99849.59;5068463;28;20206;-57
2023/05/15 03:03:26;;;;;;;2.67;2.47;;;;;;;16.38;40.31;99851.41;5072559;28;20640;-57
2023/05/15 03:05:54;;;;;;;2.70;2.30;;;;;;;16.39;40.28;99844.47;5069537;28;20205;-57
2023/05/15 03:08:22;;;;;;;3.67;2.88;;;;;;;16.33;40.26;99839.50;5065383;28;20193;-61
2023/05/15 03:10:49;;;;;;;4.20;2.90;;;;;;;16.34;40.60;99838.59;5072427;28;20622;-59
2023/05/15 03:13:17;;;;;;;3.95;2.42;;;;;;;16.31;40.20;99839.56;5070723;28;20681;-57
2023/05/15 03:15:45;;;;;;;4.65;2.30;;;;;;;16.29;40.35;99822.31;5068644;28;20729;-59
2023/05/15 03:18:13;;;;;;;4.00;2.22;;;;;;;16.29;40.40;99819.72;5064745;28;20296;-58
2023/05/15 03:20:45;;;;;;;4.30;2.60;;;;;;;16.30;40.27;99821.41;5070880;28;20205;-58
2023/05/15 03:23:12;;;;;;;2.78;2.58;;;;;;;16.28;40.30;99824.09;5070749;28;20209;-65
2023/05/15 03:25:40;;;;;;;3.53;2.60;;;;;;;16.27;40.68;99816.31;5068760;28;20282;-57
2023/05/15 03:28:08;;;;;;;3.95;2.42;;;;;;;16.26;40.51;99814.63;5069522;28;20254;-58
2023/05/15 03:30:36;;;;;;;3.53;2.38;;;;;;;16.24;40.22;99799.13;5068911;28;20741;-58
2023/05/15 03:33:05;;;;;;;2.63;2.42;;;;;;;16.22;40.64;99795.72;5059663;28;20640;-61
2023/05/15 03:35:33;;;;;;;3.60;2.58;;;;;;;16.23;40.45;99796.56;5070233;28;20692;-57
2023/05/15 03:38:02;;;;;;;3.00;2.35;;;;;;;16.24;41.13;99800.84;5066835;28;20263;-58
2023/05/15 03:40:30;;;;;;;3.05;2.35;;;;;;;16.27;40.67;99793.78;5067533;28;20371;-57
2023/05/15 03:42:58;;;;;;;3.08;2.78;;;;;;;16.29;40.79;99778.97;5066537;28;20289;-59
2023/05/15 03:45:25;;;;;;;6.53;2.85;;;;;;;16.31;40.87;99778.91;5070581;28;20205;-57
2023/05/15 03:47:54;;;;;;;3.80;2.53;;;;;;;16.34;40.47;99784.81;5053037;28;20202;-56
2023/05/15 03:50:22;;;;;;;2.80;2.60;;;;;;;16.32;40.53;99773.66;5067620;28;20541;-58
2023/05/15 03:52:50;;;;;;;2.97;2.30;;;;;;;16.33;40.31;99780.53;5063978;28;20232;-56
2023/05/15 03:55:19;;;;;;;3.53;2.60;;;;;;;16.34;40.80;99792.63;5070555;28;20238;-58
2023/05/15 03:57:47;;;;;;;3.47;2.50;;;;;;;16.30;40.83;99791.06;5068257;28;20947;-61
2023/05/15 04:00:15;;;;;;;3.97;2.45;;;;;;;16.30;40.91;99779.81;5062995;28;20209;-57
2023/05/15 04:02:45;;;;;;;2.85;2.63;;;;;;;16.32;40.41;99788.41;5070741;28;20584;-58
2023/05/15 04:05:13;;;;;;;2.42;2.22;;;;;;;16.36;40.72;99779.59;5064020;28;20624;-56
2023/05/15 04:07:41;;;;;;;5.38;2.30;;;;;;;16.32;40.53;99768.47;5063499;28;20239;-58
2023/05/15 04:10:09;;;;;;;2.60;2.35;;;;;;;16.33;40.44;99772.75;5068401;28;20232;-58
2023/05/15 04:12:39;;;;;;;4.97;2.60;;;;;;;16.32;40.43;99771.06;5062329;28;20240;-56
2023/05/15 04:15:14;;;;;;;5.15;2.50;;;;;;;16.32;40.65;99763.25;5061698;28;20205;-57
2023/05/15 04:17:42;;;;;;;4.72;2.25;;;;;;;16.34;40.58;99760.59;5065097;28;20614;-59
2023/05/15 04:20:13;;;;;;;2.95;2.65;;;;;;;16.34;41.04;99751.03;5065254;28;20251;-58
2023/05/15 04:22:40;;;;;;;4.05;2.45;;;;;;;16.34;40.93;99751.03;5068545;28;20606;-59
2023/05/15 04:25:10;;;;;;;4.05;2.65;;;;;;;16.34;41.32;99745.81;5063967;28;20638;-59
2023/05/15 04:27:39;;;;;;;5.43;2.95;;;;;;;16.36;41.11;99738.81;5067355;28;20202;-55
2023/05/15 04:30:08;;;;;;;4.95;2.65;;;;;;;16.35;41.19;99733.69;5065525;28;20194;-59
2023/05/15 04:32:38;;;;;;;8.55;2.90;;;;;;;16.31;41.48;99724.28;5070537;28;21011;-56
2023/05/15 04:35:09;;;;;;;2.65;2.35;;;;;;;16.32;41.69;99737.25;5065201;28;20201;-57
2023/05/15 04:37:37;;;;;;;3.70;2.78;;;;;;;16.34;41.56;99734.59;5051334;28;20248;-58
2023/05/15 04:40:06;;;;;;;3.55;2.83;;;;;;;16.30;41.91;99731.25;5066479;28;20209;-58
2023/05/15 04:42:35;;;;;;;3.65;2.55;;;;;;;16.33;41.78;99730.28;5068488;28;20194;-57
2023/05/15 04:45:09;;;;;;;3.17;2.20;;;;;;;16.34;41.79;99729.38;5058925;28;20193;-57
2023/05/15 04:47:37;;;;;;;3.58;2.80;;;;;;;16.31;42.12;99727.78;5058244;28;20209;-58
2023/05/15 04:50:06;;;;;;;3.28;2.60;;;;;;;16.35;41.92;99724.13;5063937;28;20703;-58
2023/05/15 04:52:34;;;;;;;3.83;2.90;;;;;;;16.35;42.07;99721.53;5062176;28;20217;-58
2023/05/15 04:55:02;;;;;;;4.50;2.90;;;;;;;16.39;42.08;99723.09;5062224;28;20205;-59
2023/05/15 04:57:30;;;;;;;6.57;2.60;;;;;;;16.43;41.91;99716.03;5067537;28;20236;-54
2023/05/15 04:59:58;;;;;;;4.97;2.72;;;;;;;16.43;42.05;99719.47;5063850;28;20227;-54
2023/05/15 05:02:27;;;;;;;4.45;3.00;;;;;;;16.47;42.61;99712.38;5064156;28;20551;-61
2023/05/15 05:04:55;;;;;;;4.32;3.50;;;;;;;16.48;42.19;99700.22;5056473;28;20209;-58
2023/05/15 05:07:23;;;;;;;6.00;4.05;;;;;;;16.50;42.24;99709.66;5063863;28;20279;-57
2023/05/15 05:09:51;;;;;;;5.28;2.58;;;;;;;16.53;41.55;99708.66;5065814;28;20623;-46
2023/05/15 05:12:19;;;;;;;2.72;2.35;;;;;;;16.52;41.24;99702.63;5061734;28;20237;-46
2023/05/15 05:14:47;;;;;;;4.60;2.67;;;;;;;16.50;42.03;99701.84;5066857;28;20273;-55
2023/05/15 05:17:15;;;;;;;4.45;2.67;;;;;;;16.48;41.84;99700.22;5053308;28;20229;-51
2023/05/15 05:19:44;;;;;;;4.03;2.67;;;;;;;16.51;42.33;99695.75;5058353;28;20213;-53
2023/05/15 05:22:11;;;;;;;6.80;2.75;;;;;;;16.53;42.41;99704.34;5058048;28;20259;-51
2023/05/15 05:24:39;;;;;;;2.63;2.42;;;;;;;16.52;42.15;99686.19;5053544;28;20695;-53
2023/05/15 05:27:07;;;;;;;6.05;2.70;;;;;;;16.49;42.58;99681.09;5052246;28;20212;-51
2023/05/15 05:29:35;;;;;;;5.78;2.65;;;;;;;16.44;42.30;99683.91;5055799;28;20209;-58
2023/05/15 05:32:03;;;;;;;2.92;2.50;;;;;;;16.42;42.15;99685.69;5055114;28;20303;-52
2023/05/15 05:34:31;;;;;;;7.80;3.08;;;;;;;16.43;42.60;99677.00;5056972;28;20211;-52
2023/05/15 05:37:00;;;;;;;7.25;2.78;;;;;;;16.46;42.38;99683.81;5064036;28;20259;-53
2023/05/15 05:39:28;;;;;;;2.42;2.00;;;;;;;16.43;42.25;99683.06;5064657;28;21078;-55
2023/05/15 05:41:56;;;;;;;4.63;2.33;;;;;;;16.42;42.67;99676.16;5067328;28;20555;-59
2023/05/15 05:44:24;;;;;;;2.70;2.50;;;;;;;16.45;42.33;99677.78;5058955;28;20644;-62
2023/05/15 05:46:52;;;;;;;3.95;2.75;;;;;;;16.48;42.46;99675.06;5062017;28;20212;-57
2023/05/15 05:49:20;;;;;;;3.85;2.20;;;;;;;16.56;41.92;99682.53;5069004;28;20201;-59
2023/05/15 05:51:48;;;;;;;3.22;2.35;;;;;;;16.58;42.49;99681.56;5064972;28;20216;-57
2023/05/15 05:54:18;;;;;;;7.50;2.35;;;;;;;16.62;42.53;99680.53;5067995;28;20209;-63
2023/05/15 05:56:45;;;;;;;7.35;3.10;;;;;;;16.68;42.60;99687.25;5065970;28;20205;-58
2023/05/15 05:59:13;;;;;;;6.13;2.85;;;;;;;16.74;42.91;99678.34;5061480;28;20209;-57
2023/05/15 06:01:42;;;;;;;4.55;2.92;;;;;;;16.78;42.49;99688.56;5066819;28;20269;-57
2023/05/15 06:04:10;;;;;;;4.53;2.63;;;;;;;16.83;42.77;99683.19;5069378;28;20208;-58
2023/05/15 06:06:38;;;;;;;7.22;3.00;;;;;;;16.85;43.30;99682.16;5057950;28;20213;-60
2023/05/15 06:09:05;;;;;;;6.03;2.67;;;;;;;16.88;43.28;99686.41;5063301;28;20205;-57
2023/05/15 06:11:35;;;;;;;7.40;2.85;;;;;;;16.88;42.71;99692.47;5070223;28;20683;-57
2023/05/15 06:14:02;;;;;;;3.53;2.70;;;;;;;16.83;43.22;99686.63;5059309;28;20224;-56
2023/05/15 06:16:30;;;;;;;8.07;2.85;;;;;;;16.79;43.87;99690.25;5067876;28;20229;-57
2023/05/15 06:18:58;;;;;;;4.40;2.60;;;;;;;16.75;43.92;99688.69;5069875;28;20213;-58
2023/05/15 06:21:26;;;;;;;3.83;2.80;;;;;;;16.67;44.51;99695.94;5070796;28;20671;-57
2023/05/15 06:23:54;;;;;;;3.97;2.72;;;;;;;16.62;45.13;99703.09;5072984;28;20241;-58
2023/05/15 06:26:22;;;;;;;4.80;2.47;;;;;;;16.56;45.47;99701.59;5073988;28;20279;-56
2023/05/15 06:28:51;;;;;;;3.35;2.67;;;;;;;16.48;46.67;99706.25;5067098;28;20639;-59
2023/05/15 06:31:19;;;;;;;5.05;3.28;;;;;;;16.41;46.90;99699.63;5069144;28;20250;-56
2023/05/15 06:33:47;;;;;;;3.72;2.65;;;;;;;16.30;47.31;99697.47;5069186;28;20292;-57
2023/05/15 06:36:15;;;;;;;2.95;2.70;;;;;;;16.23;47.92;99701.22;5057257;28;20660;-56
2023/05/15 06:38:43;;;;;;;4.75;3.08;;;;;;;16.23;48.60;99711.59;5071337;28;20209;-54
2023/05/15 06:41:11;;;;;;;3.30;2.88;;;;;;;16.23;49.12;99709.00;5070384;28;20209;-55
2023/05/15 06:43:39;;;;;;;5.65;3.05;;;;;;;16.21;49.69;99721.25;5072869;28;20271;-56
2023/05/15 06:46:08;;;;;;;4.05;3.17;;;;;;;16.15;50.72;99714.50;5066456;28;20220;-54
2023/05/15 06:48:36;;;;;;;4.07;3.30;;;;;;;16.11;50.97;99707.75;5068227;28;20550;-56
2023/05/15 06:51:04;;;;;;;5.75;3.25;;;;;;;16.06;51.30;99709.69;5068030;28;20679;-54
2023/05/15 06:53:32;;;;;;;7.55;3.33;;;;;;;16.02;52.03;99700.34;5064926;28;20237;-53
2023/05/15 06:56:00;;;;;;;5.43;3.25;;;;;;;16.02;52.07;99702.09;5068378;28;20747;-55
2023/05/15 06:58:28;;;;;;;5.15;3.75;;;;;;;15.99;52.78;99697.00;5064577;28;20205;-56
2023/05/15 07:00:56;;;;;;;4.07;3.45;;;;;;;15.98;53.08;99696.16;5069499;28;20764;-55
2023/05/15 07:03:27;;;;;;;4.30;3.20;;;;;;;16.01;53.67;99705.56;5071342;28;20756;-52
2023/05/15 07:05:55;;;;;;;4.40;3.38;;;;;;;15.99;53.50;99697.84;5069808;28;20282;-59
2023/05/15 07:08:23;;;;;;;8.23;3.65;;;;;;;15.99;54.32;99699.59;5060379;28;20198;-56
2023/05/15 07:10:51;;;;;;;6.50;3.53;;;;;;;15.98;54.44;99703.09;5067075;28;20652;-58
2023/05/15 07:13:20;;;;;;;7.55;3.60;;;;;;;15.98;54.85;99700.50;5071727;28;20239;-59
2023/05/15 07:15:48;;;;;;;4.47;3.50;;;;;;;15.92;54.86;99707.63;5067593;28;20193;-57
2023/05/15 07:18:15;;;;;;;6.35;3.78;;;;;;;15.86;55.06;99707.84;5068897;28;20210;-60
2023/05/15 07:20:45;;;;;;;5.82;3.58;;;;;;;15.78;55.60;99693.47;5067627;28;20221;-56
2023/05/15 07:23:12;;;;;;;5.03;2.97;;;;;;;15.60;56.46;99695.84;5069232;28;20208;-54
2023/05/15 07:25:40;;;;;;;6.63;4.10;;;;;;;15.44;57.36;99690.38;5068890;28;20279;-59
2023/05/15 07:28:08;;;;;;;6.63;3.72;;;;;;;15.31;57.48;99689.13;5072492;28;20233;-58
2023/05/15 07:30:36;;;;;;;5.28;4.28;;;;;;;15.26;58.20;99698.84;5070575;28;20253;-56
2023/05/15 07:33:04;;;;;;;7.32;3.85;;;;;;;15.24;57.78;99698.03;5071877;28;20619;-58
2023/05/15 07:35:32;;;;;;;4.37;3.80;;;;;;;15.23;58.54;99696.34;5068128;28;20205;-56
2023/05/15 07:38:01;;;;;;;5.20;3.77;;;;;;;15.25;58.71;99689.38;5068035;28;20202;-60
2023/05/15 07:40:29;;;;;;;5.23;3.70;;;;;;;15.28;59.27;99689.25;5066171;28;20206;-58
2023/05/15 07:42:57;;;;;;;4.13;3.67;;;;;;;15.37;59.09;99686.31;5051872;28;20228;-56
2023/05/15 07:45:25;;;;;;;7.13;4.27;;;;;;;15.41;59.39;99689.66;5055690;28;20217;-58
2023/05/15 07:47:53;;;;;;;5.97;3.87;;;;;;;15.44;59.01;99687.78;5063106;28;20270;-57
2023/05/15 07:50:21;;;;;;;4.20;3.80;;;;;;;15.41;59.08;99687.88;5066469;28;20201;-57
2023/05/15 07:52:49;;;;;;;3.97;3.50;;;;;;;15.32;58.67;99683.06;5066713;28;20304;-58
2023/05/15 07:55:18;;;;;;;4.35;3.95;;;;;;;15.22;59.38;99679.94;5065926;28;20231;-59
2023/05/15 07:57:46;;;;;;;5.63;4.20;;;;;;;15.16;60.51;99682.75;5065195;28;20201;-57
2023/05/15 08:00:21;;;;;;;9.63;4.40;;;;;;;15.16;61.01;99689.69;5063579;28;20201;-56
2023/05/15 08:02:48;;;;;;;5.67;4.23;;;;;;;15.17;60.05;99668.00;5059079;28;20210;-58
2023/05/15 08:05:16;;;;;;;8.77;4.27;;;;;;;15.19;60.51;99668.81;5069143;28;20209;-61
2023/05/15 08:07:45;;;;;;;9.63;4.37;;;;;;;15.22;60.33;99663.53;5068451;28;20213;-58
2023/05/15 08:10:13;;;;;;;5.83;4.40;;;;;;;15.11;61.36;99665.66;5063342;28;20255;-58
2023/05/15 08:12:45;;;;;;;8.27;5.03;;;;;;;15.04;61.51;99664.19;5070794;28;20798;-59
2023/05/15 08:15:13;;;;;;;5.27;4.70;;;;;;;15.05;62.93;99674.50;5064938;28;20205;-59
2023/05/15 08:17:41;;;;;;;8.40;4.97;;;;;;;15.04;63.81;99653.81;5069292;28;20228;-60
2023/05/15 08:20:10;;;;;;;7.47;4.80;;;;;;;15.03;63.75;99659.91;5058994;28;20201;-55
2023/05/15 08:22:38;;;;;;;6.90;4.65;;;;;;;14.96;62.64;99647.16;5063021;28;20753;-55
2023/05/15 08:25:07;;;;;;;5.23;4.60;;;;;;;14.88;63.56;99651.78;5066368;28;20248;-56
2023/05/15 08:27:35;;;;;;;6.97;5.00;;;;;;;14.85;64.52;99646.69;5064285;28;20280;-59
2023/05/15 08:30:07;;;;;;;6.10;4.20;;;;;;;14.83;64.14;99648.47;5061204;28;20238;-58
2023/05/15 08:32:35;;;;;;;7.68;4.70;;;;;;;14.82;63.62;99641.59;5054950;28;20722;-55
2023/05/15 08:35:03;;;;;;;6.60;5.00;;;;;;;14.79;64.30;99644.31;5066505;28;20240;-57
2023/05/15 08:37:32;;;;;;;6.32;4.43;;;;;;;14.72;64.51;99648.00;5064485;28;20208;-56
2023/05/15 08:40:00;;;;;;;4.85;4.45;;;;;;;14.67;65.06;99639.56;5059378;28;20201;-59
2023/05/15 08:42:34;;;;;;;8.03;4.90;;;;;;;14.63;64.83;99638.81;5056067;28;20213;-56
2023/05/15 08:45:03;;;;;;;8.63;4.78;;;;;;;14.64;65.18;99640.50;5069478;28;20201;-57
2023/05/15 08:47:35;;;;;;;5.87;4.33;;;;;;;14.65;65.09;99636.16;5059121;28;20240;-55
2023/05/15 08:50:06;;;;;;;6.10;4.87;;;;;;;14.63;65.07;99632.78;5060343;28;20201;-58
2023/05/15 08:52:35;;;;;;;11.77;5.07;;;;;;;14.58;65.63;99634.66;5067859;28;20660;-57
2023/05/15 08:55:04;;;;;;;7.63;5.20;;;;;;;14.57;65.98;99630.41;5067605;28;20210;-57
2023/05/15 08:57:33;;;;;;;9.53;5.40;;;;;;;14.55;65.40;99624.44;5068104;28;20937;-58
2023/05/15 09:00:03;;;;;;;5.67;4.90;;;;;;;14.52;66.87;99619.34;5070955;28;20205;-57
2023/05/15 09:02:36;;;;;;;9.40;5.67;;;;;;;14.44;66.87;99610.06;5064971;28;20216;-57
2023/05/15 09:05:05;;;;;;;7.07;5.03;;;;;;;14.41;67.60;99612.75;5066433;28;20201;-57
2023/05/15 09:07:33;;;;;;;6.93;5.40;;;;;;;14.33;68.10;99619.94;5068103;28;20663;-59
2023/05/15 09:10:03;;;;;;;7.87;5.43;;;;;;;14.21;68.94;99615.16;5068984;28;20614;-58
2023/05/15 09:12:33;;;;;;;7.27;5.57;;;;;;;14.18;69.18;99615.28;5067217;28;20205;-58
2023/05/15 09:15:09;;;;;;;8.70;5.90;;;;;;;14.12;70.34;99628.41;5063246;28;20233;-57
2023/05/15 09:17:39;;;;;;;6.03;5.37;;;;;;;14.11;70.78;99634.50;5068808;28;20663;-59
2023/05/15 09:20:24;;;;;;;10.13;5.50;;;;;;;14.06;71.04;99626.88;5062825;28;20225;-59
2023/05/15 09:22:51;;;;;;;11.30;5.37;;;;;;;14.08;70.38;99634.59;5062256;28;20650;-59
2023/05/15 09:25:33;;;;;;;5.73;5.13;;;;;;;14.13;70.95;99627.50;5068218;28;20233;-59
2023/05/15 09:28:01;;;;;;;6.20;5.40;;;;;;;14.14;70.93;99626.59;5062914;28;20197;-58
2023/05/15 09:30:29;;;;;;;7.97;5.77;;;;;;;14.15;71.02;99631.75;5067265;28;20562;-58
2023/05/15 09:33:02;;;;;;;5.97;5.30;;;;;;;14.18;71.97;99629.06;5063991;28;20580;-63
2023/05/15 09:35:35;;;;;;;8.70;6.00;;;;;;;14.12;72.33;99624.09;5053093;28;20335;-63
2023/05/15 09:38:07;;;;;;;7.53;5.70;;;;;;;14.07;72.93;99618.22;5064807;28;20201;-59
2023/05/15 09:40:35;;;;;;;7.43;5.83;;;;;;;14.04;71.90;99620.06;5064030;28;20237;-57
2023/05/15 09:43:03;;;;;;;9.77;6.30;;;;;;;14.03;72.47;99611.44;5055000;28;20641;-56
2023/05/15 09:45:31;;;;;;;6.20;5.43;;;;;;;13.96;72.87;99605.63;5062141;28;20209;-59
2023/05/15 09:48:04;;;;;;;8.57;5.97;;;;;;;13.93;73.10;99603.13;5056451;28;20202;-57
2023/05/15 09:50:34;;;;;;;7.87;6.30;;;;;;;13.82;73.38;99597.44;5068533;28;20232;-58
2023/05/15 09:53:02;;;;;;;8.73;6.20;;;;;;;13.75;73.60;99601.97;5066624;28;20573;-59
2023/05/15 09:55:32;;;;;;;7.30;5.73;;;;;;;13.72;74.37;99598.63;5062358;28;20231;-59
2023/05/15 09:58:08;;;;;;;8.27;6.60;;;;;;;13.69;75.50;99602.13;5063012;28;20197;-60
2023/05/15 10:00:37;;;;;;;8.57;6.37;;;;;;;13.65;75.48;99586.75;5072358;28;20711;-58
2023/05/15 10:03:18;;;;;;;10.50;6.17;;;;;;;13.66;75.69;99586.72;5073044;28;20209;-59
2023/05/15 10:05:46;;;;;;;8.03;6.20;;;;;;;13.65;74.86;99584.16;5072179;28;20215;-61
2023/05/15 10:08:15;;;;;;;11.13;6.20;;;;;;;13.68;75.03;99584.91;5065699;28;20201;-58
2023/05/15 10:10:43;;;;;;;9.03;7.00;;;;;;;13.70;74.96;99575.38;5068565;28;20292;-57
2023/05/15 10:13:11;;;;;;;9.47;5.80;;;;;;;13.79;74.20;99582.00;5071618;28;20637;-58
2023/05/15 10:15:40;;;;;;;7.53;6.00;;;;;;;13.80;74.53;99582.84;5066222;28;20213;-57
2023/05/15 10:18:08;;;;;;;7.20;6.50;;;;;;;13.75;74.28;99576.06;5066008;28;20683;-58
2023/05/15 10:20:38;;;;;;;10.17;6.23;;;;;;;13.73;75.26;99579.59;5069493;28;20211;-57
2023/05/15 10:23:10;;;;;;;8.83;6.17;;;;;;;13.72;74.79;99577.91;5066568;28;20245;-60
2023/05/15 10:25:42;;;;;;;8.67;6.17;;;;;;;13.72;74.68;99580.50;5056244;28;20399;-58
2023/05/15 10:28:11;;;;;;;7.93;7.00;;;;;;;13.74;75.05;99589.06;5066166;28;20252;-57
2023/05/15 10:30:39;;;;;;;7.90;7.10;;;;;;;13.76;75.11;99584.69;5063420;28;20631;-57
2023/05/15 10:33:08;;;;;;;7.40;6.17;;;;;;;13.79;74.85;99592.34;5061790;28;20244;-66
2023/05/15 10:35:39;;;;;;;9.20;6.43;;;;;;;13.81;74.62;99585.41;5065544;28;20296;-58
2023/05/15 10:38:07;;;;;;;7.13;6.50;;;;;;;13.85;75.17;99597.34;5070762;28;20206;-61
2023/05/15 10:40:38;;;;;;;8.33;7.07;;;;;;;13.90;75.22;99602.38;5068227;28;20209;-56
2023/05/15 10:43:06;;;;;;;9.93;6.17;;;;;;;13.90;75.09;99590.25;5069077;28;20233;-58
2023/05/15 10:45:35;;;;;;;7.87;6.30;;;;;;;13.95;74.61;99580.59;5067609;28;20229;-56
2023/05/15 10:48:06;;;;;;;7.07;5.90;;;;;;;13.92;74.42;99582.47;5064214;28;20236;-59
2023/05/15 10:50:38;;;;;;;8.40;6.03;;;;;;;13.89;74.53;99588.56;5070402;28;20194;-59
2023/05/15 10:53:05;;;;;;;7.30;6.37;;;;;;;13.86;75.20;99588.66;5056283;28;20206;-59
2023/05/15 10:55:33;;;;;;;7.10;6.40;;;;;;;13.88;75.25;99583.44;5070627;28;20209;-58
2023/05/15 10:58:01;;;;;;;8.37;6.10;;;;;;;13.88;74.68;99589.47;5070716;28;20220;-57
2023/05/15 11:00:31;;;;;;;8.17;6.03;;;;;;;13.88;74.49;99586.88;5072714;28;20672;-60
2023/05/15 11:02:59;;;;;;;8.07;6.53;;;;;;;13.85;75.15;99591.31;5073015;28;20209;-57
2023/05/15 11:05:29;;;;;;;8.03;6.73;;;;;;;13.85;75.20;99581.81;5068875;28;20205;-59
2023/05/15 11:08:26;;;;;;;9.87;7.17;;;;;;;13.87;75.74;99580.00;5065263;28;20629;-60
2023/05/15 11:10:55;;;;;;;11.07;6.73;;;;;;;13.89;76.23;99586.00;5068779;28;20880;-58
2023/05/15 11:13:23;;;;;;;8.73;6.87;;;;;;;13.91;76.28;99586.75;5070790;28;20213;-57
2023/05/15 11:15:51;;;;;;;7.67;6.27;;;;;;;13.88;76.10;99581.72;5069826;28;20225;-57
2023/05/15 11:18:20;;;;;;;7.40;5.97;;;;;;;13.80;76.61;99588.84;5068920;28;20197;-58
2023/05/15 11:21:09;;;;;;;8.70;6.60;;;;;;;13.68;77.30;99589.25;5072623;28;20275;-59
2023/05/15 11:23:40;;;;;;;8.67;6.33;;;;;;;13.63;77.49;99578.22;5066797;28;20213;-58
2023/05/15 11:26:08;;;;;;;6.60;5.90;;;;;;;13.60;78.03;99591.25;5067276;28;20211;-58
2023/05/15 11:28:44;;;;;;;7.17;6.20;;;;;;;13.60;77.78;99579.16;5062162;28;20216;-60
2023/05/15 11:31:12;;;;;;;5.27;4.77;;;;;;;13.56;77.53;99579.28;5071195;28;20277;-58
2023/05/15 11:33:40;;;;;;;6.33;5.03;;;;;;;13.52;78.65;99573.38;5072388;28;20212;-63
2023/05/15 11:36:08;;;;;;;6.03;5.47;;;;;;;13.47;78.66;99570.06;5072186;28;20607;-59
2023/05/15 11:38:39;;;;;;;5.23;4.80;;;;;;;13.42;78.64;99557.25;5069451;28;20246;-59
2023/05/15 11:41:18;;;;;;;5.80;5.20;;;;;;;13.33;79.50;99561.88;5072739;28;20770;-57